Terminal Aerodrome Forecast
Issued by NWS

Home | Current Version | Previous Version | Text Only | Print | Product List | Glossary On
Versions: 1 2 3 4 5 6 7 8 9 10 11 12 13 14 15 16 17
471
FTUS41 KGYX 261722
TAFRKD
TAF
KRKD 261722Z 2618/2718 19007KT P6SM FEW250
     FM271200 22007KT P6SM -SHRA SCT015 BKN025 OVC050
     FM271400 23006KT 5SM -SHRA BR BKN008 OVC025
      AMD LTD TO CLD VIS AND WIND=

USA.gov is the U.S. government's official web portal to all federal, state and local government web resources and services.